Airport ICAO


00:49 UTC

0°C

Overcast


An affordable passengers' Moving Map for your aircraft. Made for the iPad and the iPhone
More information here

LFLN


Saint Yan FRANCE   VFR


METAR LFLN 230030Z AUTO 03006KT 9999 OVC037 00/M05 Q1011 0h19min

TAF LFLN 221700Z 2218/2303 04013KT 9999 OVC040 7h49min





NOTAMS

OPEN